Disclaimer

Please do not use the information listed here in-flight or in-navigation, as they are not provided to us by the airports but are provided by volunteers, so they might be outdated.

Search


Regions


Airport information page

Radio informations:
Automatic Terminal Information Service (ATIS) - 127.875 MHz

Airport informations:
Latitude: 22° 20' 42.15" S
Longitude: 049° 03' 13.68" W
Elevation: 2025 feet - 617 meters
Operating hours: 24 hour operations
Operating agency: Civil government, landing fees and diplomatic clearance may be required
Timezone: UTC-3(-2DT)
Fuel: Jet A1, without icing nhibitor.

100/130 octane gasoline, leaded, MIL-L-5572F (GREEN)

Runway information:
14/32 - 4925 x 115 feet< - >1501 x 35 meters

Recent METARs:
SBBU 190200Z 13009KT 4000 RA BR BKN006 BKN012 OVC070 21/21 Q1015
SBBU 190300Z 10007KT 4000 RA BR FEW003 OVC020 20/20 Q1014
SBBU 190300Z 10007KT 4000 RA BR FEW003 OVC020 20/20 Q1014

Airport on the map: